KTVC/TVC METAR and TAF weather

Enter ICAO airport designator
Station Type Date Time Source
KTVC METAR 2019/07/18 10:53 UTC NOAA

KTVC 181053Z 19003KT 10SM FEW060 OVC250 22/17 A2984 RMK AO2 SLP101 T02220167


Station Type Date Time Source
KTVC Decoded METAR 2019/07/18 10:53 UTC NOAA

CHERRY CAPITAL AIRPORT, MI, United States (KTVC) 44-44N 085-34W 190M
Jul 18, 2019 - 06:53 AM EDT / 2019.07.18 1053 UTC
Wind: from the S (190 degrees) at 3 MPH (3 KT):0
Visibility: 10 mile(s):0
Sky conditions: overcast
Temperature: 72.0 F (22.2 C)
Dew Point: 62.1 F (16.7 C)
Relative Humidity: 71%
Pressure (altimeter): 29.84 in. Hg (1010 hPa)
ob: KTVC 181053Z 19003KT 10SM FEW060 OVC250 22/17 A2984 RMK AO2 SLP101 T02220167
cycle: 11

Station Type Date Time Source
KTVC TAF 2019/07/18 06:27 UTC NOAA

TAF KTVC 180523Z 1806/1906 VRB03KT P6SM SCT250
FM181500 VRB04KT P6SM VCSH BKN100
FM182300 23011KT P6SM SCT090
FM190200 23008KT P6SM SCT060

Example: see airport list